North Saint Paul, Minnesota
Current Conditions -  °F | °C
As of 4:53 PM on Monday 20 Oct 2014 (Local Time) from KSTP Reporting Station
Clear Clear  
Wind Chill: 61°   Ceiling: Unl
Heat Index: 61°   Visibility: 10mi
Dew Point: 40°   Wind: 10mph
Humidity: 46%   Direction: 350°N
Pressure: 30"   Gusts: NA
Location:  45.0145°N, 93.0259°W
Report Text: KSTP 202153Z 35009KT 10SM CLR 16/04 A3000 RMK AO2 SLP158 T01610044
Loading
Personal Weather Stations






























Interactive Weather Map New forecast layout! Learn more

10-Day Weather Forecast

Advertisements
Track Severe Weather on mobile